Time;durP1;ratioP1;P1;durP2;ratioP2;P2;SDS_P1;SDS_P2;PMS_P1;PMS_P2;Temp;Humidity;BMP_temperature;BMP_pressure;BME280_temperature;BME280_humidity;BME280_pressure;Samples;Min_cycle;Max_cycle;Signal;HPM_P1;HPM_P2
2022/07/16 00:03:04;;;;;;;;;5.25;3.50;;;;;26.36;29.82;101710.78;4921885;28;45439;-58
2022/07/16 00:05:29;;;;;;;;;3.50;3.50;;;;;26.37;29.73;101712.50;4942811;28;44928;-54
2022/07/16 00:07:55;;;;;;;;;2.00;2.00;;;;;26.37;30.08;101712.50;4945076;28;44738;-50
2022/07/16 00:10:20;;;;;;;;;3.00;3.00;;;;;26.36;30.29;101711.63;4942778;28;52709;-58
2022/07/16 00:12:46;;;;;;;;;3.00;3.00;;;;;26.36;29.77;101711.63;4919772;28;45486;-58
2022/07/16 00:15:12;;;;;;;;;3.00;3.00;;;;;26.37;29.79;101713.31;4919225;28;45988;-59
2022/07/16 00:17:38;;;;;;;;;2.00;2.00;;;;;26.36;30.19;101721.41;4919637;28;45734;-58
2022/07/16 00:20:05;;;;;;;;;4.50;3.50;;;;;26.36;30.14;101710.78;4919162;28;45271;-58
2022/07/16 00:22:30;;;;;;;;;4.75;3.00;;;;;26.35;30.25;101714.41;4919056;28;45514;-58
2022/07/16 00:24:55;;;;;;;;;3.50;3.00;;;;;26.35;30.14;101711.72;4921948;28;45272;-59
2022/07/16 00:27:21;;;;;;;;;4.00;4.00;;;;;26.34;30.41;101710.03;4934378;28;45434;-45
2022/07/16 00:29:48;;;;;;;;;3.00;3.00;;;;;26.34;29.96;101708.25;4946516;28;44967;-56
2022/07/16 00:32:14;;;;;;;;;2.25;2.25;;;;;26.35;30.09;101722.38;4945933;28;44870;-50
2022/07/16 00:34:39;;;;;;;;;3.50;3.00;;;;;26.34;29.97;101710.03;4925230;28;45359;-58
2022/07/16 00:37:05;;;;;;;;;4.50;4.50;;;;;26.34;30.08;101704.72;4919190;28;45579;-56
2022/07/16 00:39:30;;;;;;;;;5.00;3.75;;;;;26.34;30.58;101718.00;4917884;28;45389;-57
2022/07/16 00:41:55;;;;;;;;;2.25;2.25;;;;;26.33;30.54;101709.19;4918794;28;45539;-55
2022/07/16 00:44:21;;;;;;;;;3.00;3.00;;;;;26.33;30.32;101716.28;4918908;28;47466;-57
2022/07/16 00:46:48;;;;;;;;;3.25;3.25;;;;;26.33;30.30;101705.66;4918147;28;45320;-57
2022/07/16 00:49:14;;;;;;;;;4.00;3.25;;;;;26.33;30.60;101710.97;4930952;28;45245;-58
2022/07/16 00:51:45;;;;;;;;;1.00;1.00;;;;;26.33;29.88;101713.63;4931840;28;45193;-58
2022/07/16 00:54:12;;;;;;;;;4.00;3.50;;;;;26.32;29.96;101706.63;4941200;28;45467;-54
2022/07/16 00:56:37;;;;;;;;;4.00;4.00;;;;;26.31;30.45;101713.75;4927367;28;45236;-57
2022/07/16 00:59:03;;;;;;;;;2.75;2.25;;;;;26.32;30.74;101714.59;4918297;28;45428;-54
2022/07/16 01:01:28;;;;;;;;;2.00;2.00;;;;;26.30;30.58;101705.84;4918657;28;45502;-58
2022/07/16 01:03:53;;;;;;;;;3.00;3.00;;;;;26.30;30.73;101703.19;4917977;28;46969;-54
2022/07/16 01:06:19;;;;;;;;;3.00;3.00;;;;;26.30;30.74;101705.84;4918119;28;45304;-56
2022/07/16 01:08:46;;;;;;;;;4.00;3.00;;;;;26.27;30.35;101709.59;4918266;28;45319;-57
2022/07/16 01:11:14;;;;;;;;;4.00;3.00;;;;;26.27;30.36;101712.25;4918014;28;45228;-57
2022/07/16 01:13:42;;;;;;;;;3.25;3.25;;;;;26.26;30.69;101712.34;4918126;28;46061;-58
2022/07/16 01:16:08;;;;;;;;;2.00;2.00;;;;;26.27;30.14;101719.38;4917920;28;45737;-58
2022/07/16 01:18:34;;;;;;;;;3.50;3.00;;;;;26.26;30.49;101720.31;4918220;28;45318;-55
2022/07/16 01:21:01;;;;;;;;;4.25;3.50;;;;;26.26;30.46;101715.00;4918005;28;45640;-57
2022/07/16 01:23:26;;;;;;;;;3.00;3.00;;;;;26.25;30.27;101716.78;4917945;28;46068;-58
2022/07/16 01:25:52;;;;;;;;;3.00;3.00;;;;;26.23;30.81;101714.25;4918356;28;45268;-50
2022/07/16 01:28:18;;;;;;;;;2.25;2.25;;;;;26.25;30.50;101708.81;4919566;28;45394;-57
2022/07/16 01:30:45;;;;;;;;;3.00;3.00;;;;;26.24;30.93;101715.97;4919932;28;45374;-57
2022/07/16 01:33:21;;;;;;;;;5.25;3.00;;;;;26.26;30.30;101710.53;4919577;28;47447;-57
2022/07/16 01:35:47;;;;;;;;;3.50;3.50;;;;;26.23;30.26;101713.41;4919208;28;45430;-56
2022/07/16 01:38:12;;;;;;;;;4.50;4.25;;;;;26.24;30.50;101715.09;4919471;28;45392;-56
2022/07/16 01:40:37;;;;;;;;;6.00;3.50;;;;;26.24;30.36;101717.75;4919024;28;45386;-55
2022/07/16 01:43:03;;;;;;;;;4.25;3.00;;;;;26.23;30.85;101710.75;4917478;28;45932;-52
2022/07/16 01:45:28;;;;;;;;;4.50;4.50;;;;;26.22;30.30;101712.53;4917886;28;45301;-57
2022/07/16 01:47:53;;;;;;;;;3.50;3.50;;;;;26.23;30.39;101713.41;4917558;28;47427;-52
2022/07/16 01:50:19;;;;;;;;;3.00;3.00;;;;;26.21;30.64;101708.19;4918592;28;45775;-57
2022/07/16 01:52:44;;;;;;;;;5.50;3.00;;;;;26.21;30.61;101715.31;4920915;28;46988;-56
2022/07/16 01:55:09;;;;;;;;;4.00;3.00;;;;;26.20;30.98;101714.44;4920813;28;45363;-52
2022/07/16 01:57:35;;;;;;;;;4.50;4.00;;;;;26.20;30.86;101713.59;4921355;28;45250;-56
2022/07/16 02:00:00;;;;;;;;;3.25;3.25;;;;;26.20;30.69;101713.59;4921238;28;45167;-54
2022/07/16 02:02:25;;;;;;;;;6.75;3.25;;;;;26.19;30.95;101710.09;4920932;28;45258;-55
2022/07/16 02:04:51;;;;;;;;;3.00;3.00;;;;;26.20;30.70;101716.25;4921449;28;45238;-57
2022/07/16 02:07:16;;;;;;;;;3.00;3.00;;;;;26.20;30.45;101711.78;4920962;28;45186;-57
2022/07/16 02:09:42;;;;;;;;;4.75;3.75;;;;;26.20;30.78;101713.59;4921105;28;45417;-57
2022/07/16 02:12:07;;;;;;;;;3.50;3.00;;;;;26.17;30.95;101704.03;4919940;28;45454;-55
2022/07/16 02:14:32;;;;;;;;;2.50;2.50;;;;;26.16;30.55;101710.31;4920863;28;45855;-57
2022/07/16 02:16:58;;;;;;;;;4.00;4.00;;;;;26.15;30.73;101705.94;4920659;28;45469;-57
2022/07/16 02:19:23;;;;;;;;;3.00;3.00;;;;;26.15;30.83;101703.28;4921134;28;45587;-56
2022/07/16 02:21:48;;;;;;;;;3.50;3.50;;;;;26.15;30.75;101703.28;4920962;28;46249;-57
2022/07/16 02:24:14;;;;;;;;;3.75;3.75;;;;;26.15;30.41;101708.59;4920516;28;45284;-51
2022/07/16 02:26:39;;;;;;;;;3.25;2.75;;;;;26.14;30.56;101706.03;4920717;28;45325;-53
2022/07/16 02:29:05;;;;;;;;;4.00;4.00;;;;;26.14;30.54;101709.56;4920742;28;45344;-58
2022/07/16 02:31:30;;;;;;;;;3.25;3.25;;;;;26.14;30.45;101712.22;4920891;28;46413;-59
2022/07/16 02:33:55;;;;;;;;;4.25;3.75;;;;;26.15;31.23;101715.69;4920145;28;47707;-57
2022/07/16 02:36:20;;;;;;;;;5.75;3.25;;;;;26.13;30.88;101715.81;4920889;28;45297;-55
2022/07/16 02:38:46;;;;;;;;;4.00;2.50;;;;;26.10;30.42;101715.16;4920753;28;45346;-56
2022/07/16 02:41:12;;;;;;;;;4.50;4.00;;;;;26.01;30.57;101719.25;4918796;28;47108;-58
2022/07/16 02:43:37;;;;;;;;;5.00;3.25;;;;;25.93;30.84;101715.28;4931994;28;45414;-56
2022/07/16 02:46:02;;;;;;;;;4.25;3.25;;;;;25.87;31.35;101712.16;4940973;28;44777;-49
2022/07/16 02:48:28;;;;;;;;;5.50;4.75;;;;;25.82;31.38;101716.91;4925172;28;45423;-54
2022/07/16 02:50:53;;;;;;;;;7.00;4.50;;;;;25.77;31.26;101717.22;4918043;28;46859;-54
2022/07/16 02:53:18;;;;;;;;;4.25;4.00;;;;;25.71;30.94;101713.16;4918311;28;45567;-53
2022/07/16 02:55:44;;;;;;;;;4.00;4.00;;;;;25.63;31.53;101716.28;4919071;28;45429;-56
2022/07/16 02:58:09;;;;;;;;;4.50;4.50;;;;;25.57;31.08;101714.03;4920470;28;45593;-53
2022/07/16 03:00:34;;;;;;;;;3.25;3.25;;;;;25.55;31.43;101710.63;4923825;28;45283;-57
2022/07/16 03:03:00;;;;;;;;;6.75;5.00;;;;;25.50;31.57;101704.75;4938914;28;44674;-57
2022/07/16 03:05:26;;;;;;;;;5.00;4.00;;;;;25.45;31.87;101705.06;4921096;28;45410;-57
2022/07/16 03:07:51;;;;;;;;;2.75;2.75;;;;;25.42;31.27;101696.41;4920795;28;45174;-52
2022/07/16 03:10:17;;;;;;;;;5.25;3.00;;;;;25.39;31.85;101704.53;4919917;28;45427;-56
2022/07/16 03:12:43;;;;;;;;;4.00;3.75;;;;;25.36;32.10;101710.03;4920491;28;45360;-57
2022/07/16 03:15:11;;;;;;;;;5.25;5.00;;;;;25.34;32.10;101706.63;4919989;28;45331;-57
2022/07/16 03:17:37;;;;;;;;;4.25;4.00;;;;;25.27;31.52;101707.03;4920448;28;45439;-57
2022/07/16 03:20:03;;;;;;;;;4.25;4.25;;;;;25.24;31.62;101711.66;4919774;28;46001;-57
2022/07/16 03:22:28;;;;;;;;;5.25;3.00;;;;;25.23;32.00;101708.16;4920394;28;45267;-57
2022/07/16 03:24:54;;;;;;;;;5.00;4.25;;;;;25.19;32.30;101706.63;4935168;28;45698;-50
2022/07/16 03:27:19;;;;;;;;;6.00;4.50;;;;;25.16;32.21;101709.47;4935851;28;45141;-57
2022/07/16 03:29:44;;;;;;;;;4.25;4.00;;;;;25.12;32.12;101708.81;4920668;28;45584;-56
2022/07/16 03:32:10;;;;;;;;;5.00;5.00;;;;;25.06;31.96;101703.88;4919671;28;45394;-56
2022/07/16 03:34:36;;;;;;;;;3.50;3.50;;;;;25.02;32.22;101702.38;4920342;28;45214;-56
2022/07/16 03:37:01;;;;;;;;;6.00;6.00;;;;;24.98;31.80;101704.34;4919821;28;45206;-55
2022/07/16 03:39:27;;;;;;;;;3.25;3.00;;;;;24.92;32.69;101704.72;4920667;28;45509;-55
2022/07/16 03:41:52;;;;;;;;;6.25;4.00;;;;;24.87;32.01;101714.75;4921343;28;49674;-46
2022/07/16 03:44:18;;;;;;;;;4.00;4.00;;;;;24.81;32.28;101721.25;4921656;28;45512;-56
2022/07/16 03:46:43;;;;;;;;;5.25;5.00;;;;;24.80;32.24;101716.06;4921646;28;45622;-57
2022/07/16 03:49:09;;;;;;;;;5.00;5.00;;;;;24.76;32.65;101717.19;4920666;28;46269;-56
2022/07/16 03:51:34;;;;;;;;;4.25;4.25;;;;;24.74;32.74;101719.09;4920071;28;45260;-54
2022/07/16 03:54:01;;;;;;;;;6.50;5.00;;;;;24.74;32.43;101719.94;4919533;28;45412;-57
2022/07/16 03:56:26;;;;;;;;;7.00;5.25;;;;;24.76;32.67;101727.78;4920274;28;45308;-54
2022/07/16 03:58:52;;;;;;;;;4.50;4.50;;;;;24.76;32.34;101723.34;4919889;28;46176;-46
2022/07/16 04:01:18;;;;;;;;;3.25;3.25;;;;;24.76;33.10;101717.19;4931982;28;45181;-54
2022/07/16 04:03:43;;;;;;;;;5.00;4.50;;;;;24.69;32.81;101717.56;4935361;28;44967;-56
2022/07/16 04:06:09;;;;;;;;;4.25;4.00;;;;;24.62;32.66;101721.50;4932616;28;45153;-54
2022/07/16 04:08:34;;;;;;;;;4.50;4.00;;;;;24.62;32.75;101716.19;4924453;28;44912;-56
2022/07/16 04:11:00;;;;;;;;;5.50;4.00;;;;;24.61;32.70;101719.78;4919672;28;45181;-57
2022/07/16 04:13:26;;;;;;;;;5.50;4.25;;;;;24.61;32.59;101722.44;4919410;28;45440;-51
2022/07/16 04:15:51;;;;;;;;;5.25;4.00;;;;;24.62;32.64;101718.84;4919801;28;45422;-55
2022/07/16 04:18:17;;;;;;;;;4.00;4.00;;;;;24.64;32.81;101724.03;4919164;28;45368;-53
2022/07/16 04:20:42;;;;;;;;;5.50;4.50;;;;;24.65;33.07;101731.91;4919021;28;45612;-56
2022/07/16 04:23:07;;;;;;;;;4.00;3.50;;;;;24.68;33.19;101733.53;4918992;28;45728;-56
2022/07/16 04:25:33;;;;;;;;;6.25;5.00;;;;;24.68;33.16;101737.06;4919343;28;45653;-54
2022/07/16 04:27:58;;;;;;;;;5.50;5.00;;;;;24.69;32.69;101728.16;4918706;28;45986;-49
2022/07/16 04:30:24;;;;;;;;;5.50;4.00;;;;;24.69;32.74;101733.47;4919149;28;45427;-55
2022/07/16 04:32:49;;;;;;;;;5.25;5.00;;;;;24.69;32.95;101744.06;4919065;28;45342;-57
2022/07/16 04:35:15;;;;;;;;;4.00;4.00;;;;;24.71;32.55;101741.31;4918924;28;45380;-51
2022/07/16 04:37:41;;;;;;;;;5.50;5.00;;;;;24.73;32.94;101743.91;4919286;28;46140;-55
2022/07/16 04:40:08;;;;;;;;;4.00;4.00;;;;;24.72;32.74;101740.38;4918810;28;45244;-54
2022/07/16 04:42:36;;;;;;;;;5.50;4.50;;;;;24.73;33.02;101749.19;4933545;28;45226;-53
2022/07/16 04:45:02;;;;;;;;;4.00;4.00;;;;;24.69;32.86;101744.06;4938533;28;45250;-56
2022/07/16 04:47:27;;;;;;;;;4.75;4.75;;;;;24.68;33.33;101749.44;4918711;28;46042;-51
2022/07/16 04:49:52;;;;;;;;;5.75;4.00;;;;;24.64;32.89;101745.25;4918847;28;45822;-55
2022/07/16 04:52:18;;;;;;;;;5.00;4.75;;;;;24.63;33.22;101744.41;4918751;28;45414;-56
2022/07/16 04:54:43;;;;;;;;;4.75;4.00;;;;;24.63;33.06;101746.19;4916741;28;45414;-56
2022/07/16 04:57:09;;;;;;;;;4.00;4.00;;;;;24.61;32.95;101751.59;4918838;28;46559;-57
2022/07/16 04:59:34;;;;;;;;;4.25;4.25;;;;;24.58;33.61;101750.94;4918595;28;45334;-56
2022/07/16 05:04:44;;;;;;;;;7.00;5.50;;;;;24.52;33.06;101746.84;4918618;28;45446;-50
2022/07/16 05:07:09;;;;;;;;;6.75;6.00;;;;;24.55;33.63;101751.94;4918773;28;46195;-55
2022/07/16 05:09:34;;;;;;;;;5.50;4.00;;;;;24.52;33.30;101746.84;4917315;28;45398;-54
2022/07/16 05:12:00;;;;;;;;;4.00;4.00;;;;;24.47;33.29;101749.75;4917658;28;45474;-57
2022/07/16 05:14:25;;;;;;;;;7.25;4.25;;;;;24.43;33.45;101753.50;4917822;28;45414;-52
2022/07/16 05:16:51;;;;;;;;;5.75;4.75;;;;;24.35;33.82;101751.28;4917044;28;45541;-57
2022/07/16 05:19:16;;;;;;;;;4.75;4.75;;;;;24.30;34.08;101741.91;4917579;28;45431;-51
2022/07/16 05:21:41;;;;;;;;;4.50;4.00;;;;;24.29;34.02;101743.72;4917194;28;45447;-55
2022/07/16 05:24:07;;;;;;;;;5.00;5.00;;;;;24.30;33.79;101739.25;4917683;28;45772;-56
2022/07/16 05:26:32;;;;;;;;;5.00;5.00;;;;;24.30;33.92;101737.47;4919120;28;54307;-52
2022/07/16 05:28:57;;;;;;;;;8.50;6.25;;;;;24.31;33.92;101746.25;4921326;28;49850;-56
2022/07/16 05:31:22;;;;;;;;;5.25;4.00;;;;;24.29;33.95;101737.53;4921587;28;45242;-55
2022/07/16 05:33:48;;;;;;;;;7.00;5.00;;;;;24.28;33.92;101738.47;4920475;28;45279;-54
2022/07/16 05:36:13;;;;;;;;;7.00;6.00;;;;;24.27;34.25;101732.34;4920697;28;63608;-52
2022/07/16 05:38:38;;;;;;;;;5.00;5.00;;;;;24.28;33.73;101736.72;4920841;28;45291;-53
2022/07/16 05:41:04;;;;;;;;;6.25;5.00;;;;;24.29;33.95;101741.06;4921273;28;45347;-57
2022/07/16 05:43:29;;;;;;;;;5.00;5.00;;;;;24.31;34.42;101748.91;4904530;28;45598;-56
2022/07/16 05:45:55;;;;;;;;;5.00;5.00;;;;;24.30;34.34;101744.56;4921417;28;46996;-57
2022/07/16 05:48:20;;;;;;;;;6.50;5.50;;;;;24.30;34.51;101748.06;4921522;28;45363;-58
2022/07/16 05:50:45;;;;;;;;;8.75;5.00;;;;;24.35;34.16;101759.25;4921259;28;45402;-58
2022/07/16 05:53:11;;;;;;;;;5.50;4.75;;;;;24.37;34.04;101759.16;4922657;28;45354;-58
2022/07/16 05:55:36;;;;;;;;;6.25;4.50;;;;;24.38;34.37;101758.22;4928587;28;52200;-57
2022/07/16 05:58:01;;;;;;;;;6.00;6.00;;;;;24.41;34.21;101768.63;4936357;28;45156;-56
2022/07/16 06:00:27;;;;;;;;;8.00;5.25;;;;;24.40;34.06;101761.63;4927385;28;45296;-53
2022/07/16 06:02:52;;;;;;;;;7.00;5.50;;;;;24.41;34.06;101773.09;4922882;28;45229;-50
2022/07/16 06:05:17;;;;;;;;;3.00;3.00;;;;;24.43;34.52;101773.84;4921213;28;46103;-55
2022/07/16 06:07:42;;;;;;;;;6.00;6.00;;;;;24.44;34.49;101773.78;4920634;28;45385;-57
2022/07/16 06:10:09;;;;;;;;;5.00;5.00;;;;;24.45;34.41;101778.13;4920813;28;45435;-57
2022/07/16 06:12:34;;;;;;;;;5.50;5.50;;;;;24.48;34.53;101779.75;4920392;28;45464;-57
2022/07/16 06:14:59;;;;;;;;;6.25;4.00;;;;;24.48;34.12;101780.59;4925485;28;46432;-53
2022/07/16 06:17:25;;;;;;;;;4.75;4.75;;;;;24.50;34.11;101784.00;4936863;28;44823;-55
2022/07/16 06:19:51;;;;;;;;;8.00;5.00;;;;;24.51;34.44;101788.38;4921957;28;45308;-57
2022/07/16 06:22:16;;;;;;;;;8.25;5.25;;;;;24.51;34.25;101791.00;4922570;28;45312;-57
2022/07/16 06:24:41;;;;;;;;;7.50;4.00;;;;;24.48;34.06;101782.41;4920529;28;46114;-57
2022/07/16 06:27:07;;;;;;;;;5.00;5.00;;;;;24.47;34.05;101793.94;4920968;28;45459;-57
2022/07/16 06:29:32;;;;;;;;;5.00;5.00;;;;;24.48;34.25;101795.66;4920810;28;45416;-58
2022/07/16 06:31:58;;;;;;;;;4.25;4.25;;;;;24.49;34.72;101794.72;4921129;28;45512;-53
2022/07/16 06:34:23;;;;;;;;;2.00;2.00;;;;;24.52;34.53;101799.84;4920917;28;46416;-56
2022/07/16 06:36:48;;;;;;;;;5.00;5.00;;;;;24.52;34.19;101805.13;4902896;28;45393;-57
2022/07/16 06:39:13;;;;;;;;;6.00;6.00;;;;;24.53;34.19;101809.47;4932994;28;45181;-56
2022/07/16 06:41:39;;;;;;;;;4.00;4.00;;;;;24.57;34.21;101811.00;4940088;28;45163;-56
2022/07/16 06:44:06;;;;;;;;;7.00;5.50;;;;;24.60;34.68;101812.63;4920745;28;46288;-56
2022/07/16 06:46:32;;;;;;;;;6.00;5.00;;;;;24.63;34.59;101820.41;4920185;28;45706;-54
2022/07/16 06:48:57;;;;;;;;;7.00;4.75;;;;;24.65;34.24;101819.38;4920773;28;45348;-56
2022/07/16 06:51:23;;;;;;;;;5.75;5.00;;;;;24.63;34.60;101815.97;4919821;28;45701;-56
2022/07/16 06:53:48;;;;;;;;;5.00;5.00;;;;;24.60;34.54;101817.91;4918792;28;46020;-55
2022/07/16 06:56:14;;;;;;;;;6.00;5.00;;;;;24.57;34.22;101823.44;4919768;28;45374;-57
2022/07/16 06:58:39;;;;;;;;;4.00;3.75;;;;;24.55;34.17;101827.00;4919787;28;45328;-55
2022/07/16 07:01:05;;;;;;;;;5.00;5.00;;;;;24.55;34.67;101829.66;4920436;28;45369;-56
2022/07/16 07:03:30;;;;;;;;;5.50;5.00;;;;;24.59;34.91;101826.81;4920706;28;46292;-57
2022/07/16 07:05:56;;;;;;;;;3.50;3.00;;;;;24.62;34.47;101835.47;4922176;28;45324;-57
2022/07/16 07:08:21;;;;;;;;;5.00;5.00;;;;;24.65;34.37;101840.56;4920085;28;45437;-53
2022/07/16 07:10:46;;;;;;;;;9.75;5.25;;;;;24.70;34.67;101830.59;4920589;28;45344;-56
2022/07/16 07:13:12;;;;;;;;;5.00;5.00;;;;;24.75;34.62;101832.16;4919399;28;46592;-57
2022/07/16 07:15:37;;;;;;;;;5.25;5.25;;;;;24.78;34.17;101831.94;4919184;28;45259;-56
2022/07/16 07:18:02;;;;;;;;;4.25;4.00;;;;;24.80;34.47;101828.28;4919464;28;45437;-52
2022/07/16 07:20:28;;;;;;;;;5.25;4.75;;;;;24.82;33.87;101833.50;4919979;28;45527;-51
2022/07/16 07:22:53;;;;;;;;;4.50;3.00;;;;;24.86;34.35;101832.34;4919748;28;47840;-58
2022/07/16 07:25:19;;;;;;;;;5.25;5.00;;;;;24.90;34.30;101830.41;4919788;28;45325;-56
2022/07/16 07:27:44;;;;;;;;;4.00;4.00;;;;;24.88;33.90;101843.72;4919593;28;45461;-56
2022/07/16 07:30:11;;;;;;;;;4.75;4.50;;;;;24.87;33.73;101836.72;4920406;28;45442;-57
2022/07/16 07:32:37;;;;;;;;;5.25;5.25;;;;;24.88;33.85;101843.72;4920553;28;46084;-55
2022/07/16 07:35:02;;;;;;;;;8.00;5.25;;;;;24.88;34.42;101842.88;4937020;28;45201;-56
2022/07/16 07:37:28;;;;;;;;;5.75;5.00;;;;;24.91;34.35;101842.72;4943345;28;45387;-55
2022/07/16 07:39:53;;;;;;;;;5.25;4.00;;;;;24.92;33.89;101839.09;4940587;28;45324;-51
2022/07/16 07:42:18;;;;;;;;;5.75;5.75;;;;;24.94;33.57;101843.38;4928044;28;45771;-54
2022/07/16 07:44:44;;;;;;;;;3.00;3.00;;;;;24.96;34.31;101846.81;4925513;28;45386;-54
2022/07/16 07:47:09;;;;;;;;;4.00;4.00;;;;;24.98;33.55;101839.59;4920560;28;52188;-55
2022/07/16 07:49:34;;;;;;;;;7.00;5.00;;;;;25.00;33.99;101843.00;4919266;28;45542;-55
2022/07/16 07:52:00;;;;;;;;;4.00;4.00;;;;;25.01;33.07;101833.28;4918632;28;46276;-53
2022/07/16 07:54:25;;;;;;;;;4.75;4.75;;;;;25.04;33.87;101838.38;4919859;28;45399;-56
2022/07/16 07:56:50;;;;;;;;;4.00;4.00;;;;;25.07;33.99;101837.38;4918904;28;49331;-55
2022/07/16 07:59:16;;;;;;;;;5.00;5.00;;;;;25.09;33.27;101830.16;4919562;28;45589;-56
2022/07/16 08:01:42;;;;;;;;;4.75;4.00;;;;;25.11;33.22;101838.88;4919661;28;45933;-52
2022/07/16 08:04:08;;;;;;;;;4.00;4.00;;;;;25.10;33.66;101839.81;4920826;28;45218;-55
2022/07/16 08:06:34;;;;;;;;;5.00;5.00;;;;;25.13;33.27;101839.63;4921954;28;45355;-56
2022/07/16 08:08:59;;;;;;;;;4.25;4.00;;;;;25.15;33.67;101845.72;4922872;28;45339;-52
2022/07/16 08:11:24;;;;;;;;;4.25;4.25;;;;;25.17;33.36;101844.66;4921599;28;50034;-57
2022/07/16 08:13:50;;;;;;;;;7.00;5.00;;;;;25.19;33.16;101846.38;4919059;28;56401;-56
2022/07/16 08:16:15;;;;;;;;;3.00;2.75;;;;;25.21;33.34;101848.00;4919195;28;45237;-57
2022/07/16 08:18:40;;;;;;;;;4.00;4.00;;;;;25.23;32.92;101839.97;4918965;28;48421;-53
2022/07/16 08:21:06;;;;;;;;;3.00;3.00;;;;;25.24;33.41;101847.81;4938241;28;52293;-54
2022/07/16 08:26:15;;;;;;;;;4.50;4.50;;;;;25.28;33.15;101849.34;4939486;28;44713;-53
2022/07/16 08:28:42;;;;;;;;;2.25;2.25;;;;;25.31;32.86;101841.19;4937655;28;45417;-52
2022/07/16 08:31:08;;;;;;;;;3.75;3.75;;;;;25.31;32.89;101846.50;4937405;28;46238;-56
2022/07/16 08:33:33;;;;;;;;;4.00;4.00;;;;;25.34;32.75;101844.59;4939076;28;45542;-45
2022/07/16 08:36:00;;;;;;;;;3.00;3.00;;;;;25.36;33.32;101848.03;4931240;28;45228;-54
2022/07/16 08:38:26;;;;;;;;;4.00;4.00;;;;;25.36;32.93;101840.91;4941392;28;44833;-54
2022/07/16 08:40:54;;;;;;;;;4.50;4.50;;;;;25.39;32.72;101847.84;4919310;28;45382;-57
2022/07/16 08:43:20;;;;;;;;;4.25;3.25;;;;;25.39;32.78;101845.19;4921987;28;45234;-46
2022/07/16 08:45:46;;;;;;;;;4.00;3.00;;;;;25.40;32.67;101834.50;4939044;28;44757;-45
2022/07/16 08:48:13;;;;;;;;;4.75;4.75;;;;;25.43;32.64;101849.38;4938851;28;45187;-47
2022/07/16 08:50:39;;;;;;;;;4.00;4.00;;;;;25.43;33.25;101850.25;4939596;28;45502;-58
2022/07/16 08:53:06;;;;;;;;;4.00;4.00;;;;;25.45;32.82;101843.06;4937152;28;45050;-56
2022/07/16 08:55:36;;;;;;;;;6.00;6.00;;;;;25.47;32.86;101851.75;4938814;28;45348;-56
2022/07/16 08:58:02;;;;;;;;;5.00;5.00;;;;;25.49;32.63;101854.34;4932683;28;45517;-58
2022/07/16 09:00:27;;;;;;;;;3.50;3.50;;;;;25.50;32.77;101855.19;4928033;28;45323;-52
2022/07/16 09:02:54;;;;;;;;;5.00;4.00;;;;;25.51;33.00;101851.59;4932775;28;45338;-55
2022/07/16 09:05:19;;;;;;;;;6.25;4.00;;;;;25.52;32.65;101851.47;4925573;28;44806;-55
2022/07/16 09:07:45;;;;;;;;;3.00;3.00;;;;;25.55;32.89;101851.28;4924556;28;45496;-58
2022/07/16 09:10:10;;;;;;;;;4.75;4.75;;;;;25.57;32.76;101854.72;4920536;28;47016;-56
2022/07/16 09:12:45;;;;;;;;;3.50;3.50;;;;;25.59;32.46;101855.47;4920668;28;45430;-56
2022/07/16 09:15:30;;;;;;;;;6.50;5.00;;;;;25.61;32.96;101847.41;4920377;28;45225;-58
2022/07/16 09:18:16;;;;;;;;;5.00;3.75;;;;;25.63;32.51;101853.50;4919629;28;45315;-59
2022/07/16 09:20:52;;;;;;;;;6.25;4.00;;;;;25.64;32.58;101855.19;4918723;28;46268;-55
2022/07/16 09:23:17;;;;;;;;;4.25;4.25;;;;;25.66;32.86;101855.09;4917038;28;45771;-55
2022/07/16 09:25:57;;;;;;;;;4.67;4.00;;;;;25.68;32.24;101858.50;4918153;28;45376;-59
2022/07/16 09:28:24;;;;;;;;;5.25;5.00;;;;;25.68;32.85;101848.75;4919046;28;45204;-55
2022/07/16 09:30:51;;;;;;;;;4.25;3.50;;;;;25.70;32.26;101862.78;4927778;28;46386;-55
2022/07/16 09:33:20;;;;;;;;;5.25;5.25;;;;;25.71;32.18;101859.16;4934055;28;45823;-56
2022/07/16 09:35:47;;;;;;;;;3.75;3.75;;;;;25.73;32.66;101851.13;4919196;28;45458;-57
2022/07/16 09:38:13;;;;;;;;;8.50;7.00;;;;;25.74;32.59;101847.53;4918385;28;45585;-55
2022/07/16 09:40:38;;;;;;;;;5.00;4.25;;;;;25.76;32.16;101848.25;4917624;28;46091;-54
2022/07/16 09:43:13;;;;;;;;;9.00;7.00;;;;;25.78;32.25;101854.34;4917075;28;45460;-53
2022/07/16 09:45:43;;;;;;;;;5.75;5.75;;;;;25.80;32.58;101844.47;4917828;28;45476;-55
2022/07/16 09:48:35;;;;;;;;;8.75;5.50;;;;;25.82;32.44;101849.69;4917830;28;45616;-56
2022/07/16 09:51:12;;;;;;;;;4.00;4.00;;;;;25.84;32.54;101845.13;4917625;28;46196;-51
2022/07/16 09:53:40;;;;;;;;;4.50;4.00;;;;;25.86;32.17;101846.75;4917497;28;45303;-52
2022/07/16 09:56:08;;;;;;;;;6.75;5.00;;;;;25.89;32.91;101849.22;4917535;28;45346;-56
2022/07/16 09:58:34;;;;;;;;;6.00;4.00;;;;;25.89;32.80;101851.88;4917562;28;45267;-52
2022/07/16 10:01:01;;;;;;;;;4.25;4.00;;;;;25.91;32.85;101855.28;4917241;28;46949;-56
2022/07/16 10:03:28;;;;;;;;;6.00;4.00;;;;;25.93;32.70;101853.41;4917731;28;45394;-54
2022/07/16 10:05:53;;;;;;;;;5.25;4.00;;;;;25.96;33.03;101862.13;4918333;28;45538;-54
2022/07/16 10:08:19;;;;;;;;;6.25;5.25;;;;;25.98;33.16;101862.88;4922132;28;45226;-56
2022/07/16 10:10:46;;;;;;;;;6.25;5.00;;;;;25.99;32.48;101859.25;4922710;28;45449;-53
2022/07/16 10:13:12;;;;;;;;;6.25;4.00;;;;;26.00;32.98;101864.50;4926001;28;45737;-53
2022/07/16 10:15:38;;;;;;;;;4.25;4.25;;;;;26.03;33.24;101863.44;4923966;28;45382;-56
2022/07/16 10:18:36;;;;;;;;;6.00;4.50;;;;;26.04;33.10;101860.69;4922716;28;45379;-54
2022/07/16 10:21:19;;;;;;;;;4.25;4.25;;;;;26.06;32.61;101868.56;4922028;28;46186;-55
2022/07/16 10:23:47;;;;;;;;;5.00;5.00;;;;;26.05;32.45;101862.38;4920726;28;45796;-57
2022/07/16 10:26:17;;;;;;;;;4.75;4.75;;;;;26.08;32.16;101869.31;4920905;28;45309;-56
2022/07/16 10:28:46;;;;;;;;;5.75;5.25;;;;;26.08;31.98;101861.31;4921430;28;45347;-52
2022/07/16 10:31:40;;;;;;;;;4.75;4.00;;;;;26.08;32.10;101856.00;4923543;28;47066;-55
2022/07/16 10:34:15;;;;;;;;;6.00;4.25;;;;;26.09;32.04;101857.72;4936921;28;45226;-50
2022/07/16 10:36:45;;;;;;;;;6.00;6.00;;;;;26.10;31.90;101855.97;4932245;28;45328;-57
2022/07/16 10:39:14;;;;;;;;;7.00;4.75;;;;;26.12;31.76;101856.72;4923718;28;45791;-56
2022/07/16 10:41:49;;;;;;;;;6.00;6.00;;;;;26.13;31.36;101853.97;4926083;28;47595;-54
2022/07/16 10:44:15;;;;;;;;;10.50;5.50;;;;;26.14;32.05;101860.13;4921785;28;45805;-56
2022/07/16 10:47:00;;;;;;;;;4.75;4.75;;;;;26.16;31.37;101852.91;4921579;28;45302;-55
2022/07/16 10:49:28;;;;;;;;;7.25;5.00;;;;;26.16;31.93;101856.44;4926322;28;45316;-56
2022/07/16 10:52:00;;;;;;;;;5.00;5.00;;;;;26.17;31.64;101850.19;4932081;28;46250;-53
2022/07/16 10:54:39;;;;;;;;;8.25;5.00;;;;;26.16;31.08;101859.09;4920859;28;45365;-51
2022/07/16 10:57:08;;;;;;;;;5.00;5.00;;;;;26.17;31.83;101854.63;4933771;28;45336;-55
2022/07/16 10:59:39;;;;;;;;;7.00;5.00;;;;;26.16;31.67;101848.47;4935942;28;45569;-55
2022/07/16 11:02:07;;;;;;;;;6.00;6.00;;;;;26.18;31.49;101857.16;4931989;28;46655;-54
2022/07/16 11:04:42;;;;;;;;;3.25;2.75;;;;;26.19;31.26;101850.91;4927375;28;45995;-56
2022/07/16 11:07:10;;;;;;;;;5.00;5.00;;;;;26.19;31.40;101848.25;4927340;28;45237;-54
2022/07/16 11:09:38;;;;;;;;;5.25;5.00;;;;;26.18;31.71;101851.00;4926948;28;45399;-58
2022/07/16 11:12:10;;;;;;;;;5.25;4.75;;;;;26.17;31.16;101849.31;4925021;28;47196;-56
2022/07/16 11:14:35;;;;;;;;;7.00;5.75;;;;;26.16;31.40;101859.09;4927062;28;45723;-55
2022/07/16 11:17:02;;;;;;;;;5.00;5.00;;;;;26.17;31.61;101849.31;4928768;28;45360;-50
2022/07/16 11:19:28;;;;;;;;;8.00;5.00;;;;;26.17;31.45;101851.97;4934970;28;45395;-51
2022/07/16 11:22:01;;;;;;;;;4.00;4.00;;;;;26.16;31.55;101837.84;4924213;28;46281;-54
2022/07/16 11:24:28;;;;;;;;;6.00;5.00;;;;;26.16;31.37;101839.63;4920231;28;45450;-53
2022/07/16 11:26:55;;;;;;;;;5.75;4.50;;;;;26.16;31.40;101839.63;4921008;28;45266;-56
2022/07/16 11:29:23;;;;;;;;;6.00;6.00;;;;;26.16;31.49;101836.97;4923513;28;45731;-54